Time;durP1;ratioP1;P1;durP2;ratioP2;P2;SDS_P1;SDS_P2;PMS_P1;PMS_P2;Temp;Humidity;BMP_temperature;BMP_pressure;BME280_temperature;BME280_humidity;BME280_pressure;Samples;Min_cycle;Max_cycle;Signal;HPM_P1;HPM_P2
2022/04/15 00:04:30;;;;;;;31.83;21.40;;;;;;;5.48;95.76;102267.25;10481254;28;20028;-77
2022/04/15 00:09:31;;;;;;;33.80;22.15;;;;;;;5.58;95.70;102266.41;10462550;28;20040;-77
2022/04/15 00:14:31;;;;;;;37.00;22.83;;;;;;;5.62;96.48;102270.19;10466476;28;20138;-77
2022/04/15 00:19:32;;;;;;;32.28;21.83;;;;;;;5.51;96.90;102262.31;10483841;28;20495;-78
2022/04/15 00:24:32;;;;;;;36.38;22.92;;;;;;;5.47;96.25;102265.41;10454888;28;20087;-77
2022/04/15 00:29:33;;;;;;;32.97;23.20;;;;;;;5.43;97.25;102273.69;10458420;28;20051;-77
2022/04/15 00:34:34;;;;;;;33.80;23.50;;;;;;;5.39;97.12;102271.59;10440555;28;20080;-78
2022/04/15 00:39:35;;;;;;;37.15;23.73;;;;;;;5.23;97.11;102272.78;10439847;28;20064;-77
2022/04/15 00:44:36;;;;;;;40.13;24.88;;;;;;;5.31;97.37;102277.78;10465767;28;20488;-77
2022/04/15 00:49:36;;;;;;;44.30;26.25;;;;;;;5.28;98.02;102281.00;10438948;28;20032;-77
2022/04/15 00:54:37;;;;;;;39.42;24.40;;;;;;;5.17;98.25;102279.13;10473665;28;20512;-77
2022/04/15 00:59:38;;;;;;;32.70;22.05;;;;;;;5.12;98.08;102281.28;10455843;28;20060;-77
2022/04/15 01:04:39;;;;;;;38.73;25.10;;;;;;;5.07;98.42;102279.94;10454089;28;20029;-77
2022/04/15 01:09:42;;;;;;;39.97;25.02;;;;;;;5.00;98.29;102286.25;10435107;28;20061;-77
2022/04/15 01:14:43;;;;;;;37.80;24.13;;;;;;;4.89;98.21;102285.25;10398479;28;20029;-78
2022/04/15 01:19:43;;;;;;;43.78;28.65;;;;;;;4.85;98.48;102291.84;10441059;28;20065;-77
2022/04/15 01:24:44;;;;;;;44.88;28.42;;;;;;;4.81;98.16;102294.91;10458495;28;20048;-78
2022/04/15 01:29:44;;;;;;;45.50;28.52;;;;;;;4.77;98.81;102298.00;10450337;28;20044;-78
2022/04/15 01:34:45;;;;;;;49.28;28.80;;;;;;;4.72;98.69;102304.41;10438878;28;20129;-77
2022/04/15 01:39:46;;;;;;;49.03;27.80;;;;;;;4.77;98.94;102302.25;10454096;28;20037;-78
2022/04/15 01:44:47;;;;;;;46.67;26.15;;;;;;;4.82;99.26;102294.16;10430248;28;20093;-77
2022/04/15 01:49:47;;;;;;;44.25;28.20;;;;;;;4.85;99.42;102303.88;10485637;28;20098;-77
2022/04/15 01:54:48;;;;;;;40.88;26.30;;;;;;;4.74;99.70;102307.16;10487499;28;20111;-77
2022/04/15 01:59:48;;;;;;;45.47;28.08;;;;;;;4.64;99.30;102313.16;10475758;28;20071;-78
2022/04/15 02:04:48;;;;;;;43.35;28.05;;;;;;;4.45;99.13;102308.81;10491458;28;20037;-77
2022/04/15 02:09:49;;;;;;;44.33;27.35;;;;;;;4.40;99.08;102320.41;10448808;28;20068;-79
2022/04/15 02:14:49;;;;;;;45.88;30.60;;;;;;;4.34;99.45;102320.72;10471868;28;20057;-79
2022/04/15 02:19:53;;;;;;;49.67;30.85;;;;;;;4.28;99.71;102325.31;10460225;28;20079;-79
2022/04/15 02:24:53;;;;;;;60.08;30.52;;;;;;;4.17;99.43;102323.38;10458074;28;20039;-79
2022/04/15 02:29:54;;;;;;;38.92;27.00;;;;;;;4.05;99.74;102330.88;10456737;28;20488;-79
2022/04/15 02:34:54;;;;;;;40.70;24.92;;;;;;;3.99;99.34;102326.00;10459171;28;20162;-79
2022/04/15 02:39:55;;;;;;;47.58;27.83;;;;;;;4.02;99.78;102333.19;10413949;28;20086;-79
2022/04/15 02:44:56;;;;;;;43.65;28.77;;;;;;;3.99;99.85;102343.25;10470161;28;20123;-78
2022/04/15 02:49:56;;;;;;;42.17;23.98;;;;;;;3.89;99.84;102336.22;10443670;28;20043;-79
2022/04/15 02:54:57;;;;;;;43.67;28.83;;;;;;;3.93;100.00;102331.50;10461337;28;20384;-78
2022/04/15 02:59:58;;;;;;;55.10;30.33;;;;;;;4.09;99.86;102336.50;10476374;28;20118;-78
2022/04/15 03:04:59;;;;;;;52.57;30.00;;;;;;;4.08;100.00;102331.19;10434916;28;20036;-78
2022/04/15 03:10:00;;;;;;;41.67;26.77;;;;;;;3.97;100.00;102338.81;10415849;28;20476;-78
2022/04/15 03:15:01;;;;;;;39.88;27.50;;;;;;;3.99;100.00;102343.25;10460391;28;20115;-78
2022/04/15 03:20:06;;;;;;;45.80;27.08;;;;;;;3.92;100.00;102347.81;10440770;28;20037;-78
2022/04/15 03:25:09;;;;;;;41.22;26.10;;;;;;;3.84;100.00;102345.22;10445276;28;20036;-78
2022/04/15 03:30:11;;;;;;;41.83;24.77;;;;;;;3.84;100.00;102350.41;10430730;28;20551;-78
2022/04/15 03:35:11;;;;;;;47.97;25.50;;;;;;;3.62;100.00;102353.44;10454168;28;20410;-78
2022/04/15 03:40:12;;;;;;;47.25;31.55;;;;;;;3.44;100.00;102361.22;10471367;28;20048;-78
2022/04/15 03:45:14;;;;;;;57.08;33.50;;;;;;;3.49;100.00;102359.09;10432237;28;20047;-79
2022/04/15 03:50:15;;;;;;;50.53;31.75;;;;;;;3.46;100.00;102364.88;10486777;28;20057;-78
2022/04/15 03:55:17;;;;;;;56.33;33.58;;;;;;;3.31;100.00;102352.97;10450676;28;20060;-78
2022/04/15 04:00:26;;;;;;;49.70;29.65;;;;;;;3.32;100.00;102353.13;10437591;28;20040;-78
2022/04/15 04:05:27;;;;;;;66.15;33.72;;;;;;;3.32;100.00;102349.63;10434885;28;20029;-78
2022/04/15 04:10:27;;;;;;;51.85;33.25;;;;;;;3.27;100.00;102349.16;10457058;28;20029;-78
2022/04/15 04:15:29;;;;;;;76.57;39.20;;;;;;;3.34;100.00;102358.44;10444255;28;20048;-78
2022/04/15 04:20:30;;;;;;;53.60;32.00;;;;;;;3.31;100.00;102353.91;10453633;28;20036;-78
2022/04/15 04:25:31;;;;;;;59.38;33.78;;;;;;;3.24;100.00;102361.81;10424796;28;20032;-77
2022/04/15 04:30:31;;;;;;;54.42;33.65;;;;;;;3.18;100.00;102362.06;10448909;28;20103;-78
2022/04/15 04:35:32;;;;;;;69.72;39.35;;;;;;;3.23;100.00;102371.22;10477163;28;20116;-78
2022/04/15 04:40:33;;;;;;;70.78;40.83;;;;;;;3.36;100.00;102375.06;10459543;28;20035;-78
2022/04/15 04:45:35;;;;;;;61.93;35.87;;;;;;;3.29;100.00;102380.38;10473142;28;20048;-78
2022/04/15 04:50:38;;;;;;;59.60;36.80;;;;;;;3.21;100.00;102384.78;10458213;28;20071;-78
2022/04/15 04:55:42;;;;;;;67.25;34.67;;;;;;;3.37;100.00;102402.75;10441135;28;20079;-78
2022/04/15 05:00:45;;;;;;;71.07;39.90;;;;;;;3.51;100.00;102407.66;10440608;28;20045;-77
2022/04/15 05:05:46;;;;;;;65.65;39.97;;;;;;;3.67;100.00;102415.31;10426731;28;20073;-78
2022/04/15 05:10:46;;;;;;;57.40;34.88;;;;;;;3.82;100.00;102423.69;10417572;28;20052;-77
2022/04/15 05:15:47;;;;;;;58.00;37.03;;;;;;;4.03;100.00;102431.75;10416866;28;20116;-77
2022/04/15 05:20:47;;;;;;;68.45;38.25;;;;;;;4.28;100.00;102434.19;10448630;28;20059;-77
2022/04/15 05:25:48;;;;;;;67.85;40.53;;;;;;;4.78;100.00;102433.78;10418049;28;20080;-76
2022/04/15 05:30:48;;;;;;;79.07;45.30;;;;;;;5.03;100.00;102442.25;10454707;28;20491;-76
2022/04/15 05:35:49;;;;;;;73.82;48.47;;;;;;;5.54;100.00;102449.59;10438583;28;20160;-76
2022/04/15 05:40:50;;;;;;;120.20;59.28;;;;;;;5.85;100.00;102456.75;10446680;28;20129;-77
2022/04/15 05:45:50;;;;;;;111.20;55.92;;;;;;;6.27;100.00;102466.69;10444322;28;20695;-77
2022/04/15 05:50:51;;;;;;;87.90;47.13;;;;;;;6.29;100.00;102482.41;10447655;28;20540;-77
2022/04/15 05:55:52;;;;;;;74.15;39.78;;;;;;;6.25;98.93;102482.91;10424297;28;20068;-76
2022/04/15 06:00:53;;;;;;;77.80;42.00;;;;;;;6.19;98.25;102490.16;10441413;28;20061;-76
2022/04/15 06:05:56;;;;;;;71.40;42.08;;;;;;;6.22;98.17;102498.22;10450045;28;20037;-77
2022/04/15 06:10:57;;;;;;;75.25;42.85;;;;;;;6.20;98.17;102503.31;10426421;28;20119;-76
2022/04/15 06:15:59;;;;;;;79.13;39.33;;;;;;;6.35;98.64;102519.38;10467036;28;20039;-76
2022/04/15 06:21:00;;;;;;;58.90;35.85;;;;;;;6.38;98.20;102519.66;10433230;28;20044;-77
2022/04/15 06:26:01;;;;;;;101.03;37.17;;;;;;;6.39;97.95;102521.47;10440795;28;20040;-77
2022/04/15 06:31:01;;;;;;;53.83;31.23;;;;;;;6.46;98.70;102531.66;10446703;28;20075;-80
2022/04/15 06:36:02;;;;;;;45.35;26.20;;;;;;;6.44;97.98;102543.63;10424174;28;20444;-79
2022/04/15 06:41:02;;;;;;;42.55;24.92;;;;;;;6.54;97.25;102548.00;10423755;28;20032;-77
2022/04/15 06:46:03;;;;;;;36.75;26.42;;;;;;;6.67;97.82;102555.19;10421980;28;20064;-77
2022/04/15 06:51:03;;;;;;;40.95;25.75;;;;;;;6.78;96.32;102553.59;10432929;28;20074;-76
2022/04/15 06:56:04;;;;;;;43.20;24.00;;;;;;;6.98;96.49;102555.38;10421989;28;20068;-77
2022/04/15 07:01:05;;;;;;;38.00;23.80;;;;;;;7.18;96.67;102556.22;10430454;28;20034;-76
2022/04/15 07:06:05;;;;;;;46.67;24.63;;;;;;;7.31;95.74;102558.22;10446240;28;20029;-76
2022/04/15 07:11:06;;;;;;;27.70;18.48;;;;;;;7.26;93.29;102560.41;10415518;28;20124;-76
2022/04/15 07:16:06;;;;;;;36.80;22.33;;;;;;;7.05;93.41;102567.25;10420359;28;20033;-75
2022/04/15 07:21:07;;;;;;;33.35;21.67;;;;;;;7.03;93.31;102571.41;10435824;28;20072;-77
2022/04/15 07:26:07;;;;;;;37.58;22.52;;;;;;;7.02;94.44;102573.09;10406548;28;20038;-77
2022/04/15 07:31:08;;;;;;;38.97;23.27;;;;;;;7.12;94.76;102582.66;10435719;28;20084;-77
2022/04/15 07:36:31;;;;;;;39.28;23.58;;;;;;;7.15;94.28;102590.72;10427445;28;20547;-77
2022/04/15 07:41:29;;;;;;;33.92;21.45;;;;;;;7.53;94.83;102583.56;10453278;28;20043;-77
2022/04/15 07:46:29;;;;;;;21.80;13.88;;;;;;;8.40;90.39;102583.09;10444544;28;20048;-77
2022/04/15 07:51:30;;;;;;;24.33;15.10;;;;;;;8.96;84.57;102583.41;10476624;28;20040;-77
2022/04/15 07:56:32;;;;;;;17.77;10.82;;;;;;;10.89;78.96;102579.91;10432742;28;20060;-76
2022/04/15 08:01:35;;;;;;;9.70;6.45;;;;;;;13.15;66.62;102577.03;10415927;28;20499;-76
2022/04/15 08:06:36;;;;;;;10.68;7.88;;;;;;;14.38;61.48;102577.59;10400873;28;20408;-77
2022/04/15 08:11:37;;;;;;;12.98;8.85;;;;;;;14.10;59.37;102573.31;10474752;28;20044;-77
2022/04/15 08:16:37;;;;;;;10.70;7.05;;;;;;;12.98;62.18;102575.97;10501809;28;20577;-77
2022/04/15 08:21:38;;;;;;;9.18;6.22;;;;;;;11.96;64.25;102582.25;10462250;28;20464;-77
2022/04/15 08:26:39;;;;;;;11.90;7.72;;;;;;;12.86;64.08;102581.31;10441728;28;20112;-79
2022/04/15 08:31:40;;;;;;;12.18;6.05;;;;;;;13.53;60.11;102582.97;10477790;28;20484;-79
2022/04/15 08:36:40;;;;;;;11.45;7.10;;;;;;;13.53;58.90;102589.94;10417787;28;20037;-78
2022/04/15 08:41:41;;;;;;;8.98;6.43;;;;;;;12.81;60.28;102585.34;10407658;28;20116;-78
2022/04/15 08:46:42;;;;;;;13.37;7.10;;;;;;;12.85;62.33;102582.13;10418052;28;20489;-78
2022/04/15 08:51:42;;;;;;;10.43;7.90;;;;;;;12.85;62.12;102592.63;10421234;28;20049;-79
2022/04/15 08:56:43;;;;;;;10.55;6.47;;;;;;;14.36;56.60;102599.41;10430240;28;20064;-79
2022/04/15 09:01:44;;;;;;;10.65;7.00;;;;;;;14.06;58.55;102595.00;10456621;28;20064;-78
2022/04/15 09:06:44;;;;;;;10.30;6.43;;;;;;;13.55;58.63;102609.38;10441783;28;20499;-77
2022/04/15 09:11:48;;;;;;;11.55;7.45;;;;;;;13.00;60.91;102620.72;10429989;28;20091;-77
2022/04/15 09:16:48;;;;;;;12.00;6.10;;;;;;;13.03;60.42;102624.50;10426877;28;20084;-80
2022/04/15 09:21:53;;;;;;;8.73;6.25;;;;;;;14.02;58.27;102621.06;10430242;28;20029;-78
2022/04/15 09:26:54;;;;;;;11.18;8.93;;;;;;;14.52;56.79;102627.56;10414004;28;20045;-77
2022/04/15 09:31:57;;;;;;;11.60;7.60;;;;;;;15.86;53.26;102615.78;10445276;28;20069;-78
2022/04/15 09:36:58;;;;;;;8.10;5.15;;;;;;;16.32;48.97;102623.47;10456702;28;20111;-78
2022/04/15 09:42:03;;;;;;;7.55;5.28;;;;;;;15.03;53.17;102634.91;10461827;28;20158;-80
2022/04/15 09:47:04;;;;;;;9.20;5.07;;;;;;;15.38;51.93;102628.09;10473708;28;20133;-78
2022/04/15 09:52:06;;;;;;;12.17;8.57;;;;;;;17.93;48.22;102628.63;10438234;28;20043;-77
2022/04/15 09:57:06;;;;;;;5.70;4.32;;;;;;;19.40;44.42;102625.06;10421698;28;20033;-78
2022/04/15 10:02:07;;;;;;;6.68;5.40;;;;;;;18.29;44.58;102630.22;10441532;28;20115;-78
2022/04/15 10:07:08;;;;;;;7.90;4.88;;;;;;;17.53;46.54;102630.31;10439026;28;20123;-80
2022/04/15 10:12:08;;;;;;;8.85;6.35;;;;;;;16.00;50.04;102631.50;10400719;28;20073;-77
2022/04/15 10:17:09;;;;;;;11.57;5.38;;;;;;;15.27;52.38;102624.88;10387752;28;20056;-77
2022/04/15 10:22:09;;;;;;;12.95;6.28;;;;;;;17.04;48.52;102618.31;10461173;28;20533;-77
2022/04/15 10:27:11;;;;;;;7.18;4.70;;;;;;;19.29;45.69;102614.03;10450801;28;20225;-77
2022/04/15 10:32:13;;;;;;;6.75;4.38;;;;;;;22.35;39.28;102614.34;10418169;28;20121;-78
2022/04/15 10:37:14;;;;;;;13.52;6.80;;;;;;;19.77;40.35;102616.78;10456456;28;20102;-77
2022/04/15 10:42:18;;;;;;;8.85;5.78;;;;;;;17.73;45.15;102617.09;10443468;28;20106;-79
2022/04/15 10:47:24;;;;;;;8.95;5.57;;;;;;;19.02;43.22;102606.78;10472728;28;20041;-77
2022/04/15 10:52:26;;;;;;;7.75;5.32;;;;;;;21.65;39.18;102600.88;10454557;28;20049;-78
2022/04/15 10:57:36;;;;;;;7.93;5.93;;;;;;;20.04;39.46;102615.09;10439262;28;20583;-78
2022/04/15 11:02:40;;;;;;;7.68;5.18;;;;;;;20.64;40.08;102608.31;10459970;28;20808;-78
2022/04/15 11:07:47;;;;;;;9.27;4.57;;;;;;;22.40;36.63;102599.38;10458214;28;20051;-77
2022/04/15 11:12:48;;;;;;;7.53;5.05;;;;;;;23.12;34.96;102599.34;10475492;28;20440;-78
2022/04/15 11:17:52;;;;;;;6.82;3.97;;;;;;;22.00;36.84;102601.84;10485135;28;20056;-78
2022/04/15 11:22:52;;;;;;;8.52;4.18;;;;;;;22.81;35.54;102595.97;10435885;28;20044;-78
2022/04/15 11:27:53;;;;;;;7.10;4.40;;;;;;;23.10;37.69;102589.53;10451402;28;20127;-78
2022/04/15 11:32:56;;;;;;;6.50;4.47;;;;;;;22.45;35.15;102588.84;10467269;28;20068;-79
2022/04/15 11:37:58;;;;;;;7.85;4.93;;;;;;;21.23;36.96;102591.59;10461143;28;20048;-78
2022/04/15 11:43:01;;;;;;;8.10;5.30;;;;;;;18.48;44.76;102600.13;10442327;28;20075;-79
2022/04/15 11:48:23;;;;;;;11.13;5.15;;;;;;;19.54;42.58;102583.13;10456190;28;20033;-77
2022/04/15 11:53:24;;;;;;;6.50;4.95;;;;;;;19.70;41.52;102585.50;10437052;28;20037;-77
2022/04/15 11:58:30;;;;;;;7.60;6.60;;;;;;;20.55;43.03;102579.66;10462609;28;20056;-77
2022/04/15 12:03:31;;;;;;;6.18;5.03;;;;;;;21.90;36.69;102590.91;10429251;28;20534;-77
2022/04/15 12:08:31;;;;;;;7.03;5.15;;;;;;;22.72;35.72;102583.31;10446707;28;20056;-77
2022/04/15 12:13:35;;;;;;;7.75;5.32;;;;;;;22.53;34.19;102586.38;10429245;28;20102;-76
2022/04/15 12:18:36;;;;;;;8.82;5.57;;;;;;;21.31;37.93;102581.19;10441717;28;20040;-76
2022/04/15 12:23:36;;;;;;;11.10;6.85;;;;;;;21.26;38.17;102591.69;10423262;28;20045;-76
2022/04/15 12:34:01;;;;;;;6.97;5.35;;;;;;;20.72;40.48;102582.84;10447200;28;20040;-75
2022/04/15 12:39:05;;;;;;;8.18;5.10;;;;;;;20.90;36.63;102587.00;10385415;28;20064;-75
2022/04/15 12:44:15;;;;;;;5.57;4.85;;;;;;;21.74;37.16;102585.16;10456633;28;20033;-76
2022/04/15 12:49:28;;;;;;;6.53;5.68;;;;;;;22.44;34.67;102601.28;10424365;28;20041;-76
2022/04/15 12:54:28;;;;;;;8.68;5.22;;;;;;;20.91;38.26;102594.13;10430425;28;20400;-75
2022/04/15 12:59:29;;;;;;;8.68;5.40;;;;;;;21.40;37.82;102592.13;10403429;28;20068;-75
2022/04/15 13:04:29;;;;;;;7.18;4.85;;;;;;;19.83;40.11;102589.50;10443208;28;20062;-75
2022/04/15 13:09:30;;;;;;;8.77;6.85;;;;;;;19.39;42.74;102589.66;10438498;28;20072;-76
2022/04/15 13:14:30;;;;;;;7.40;4.90;;;;;;;19.09;42.13;102592.91;10455879;28;20557;-76
2022/04/15 13:19:31;;;;;;;8.55;5.25;;;;;;;20.01;40.62;102583.09;10496994;28;20036;-76
2022/04/15 13:24:31;;;;;;;7.30;5.57;;;;;;;19.75;41.07;102588.31;10439530;28;20040;-75
2022/04/15 13:29:32;;;;;;;7.30;5.03;;;;;;;20.37;38.83;102587.91;10455622;28;20072;-75
2022/04/15 13:34:33;;;;;;;8.38;5.20;;;;;;;20.03;41.10;102582.31;10462982;28;20496;-75
2022/04/15 13:39:37;;;;;;;12.57;5.88;;;;;;;19.59;41.10;102584.22;10498186;28;20067;-76
2022/04/15 13:44:37;;;;;;;7.93;5.68;;;;;;;20.20;38.71;102582.91;10411276;28;20067;-76
2022/04/15 13:49:38;;;;;;;7.90;4.95;;;;;;;20.24;40.57;102589.25;10416246;28;20123;-76
2022/04/15 14:00:04;;;;;;;6.30;5.05;;;;;;;20.97;37.93;102575.69;10420022;28;20421;-77
2022/04/15 14:05:07;;;;;;;5.82;4.82;;;;;;;21.21;39.07;102585.31;10434781;28;20080;-76
2022/04/15 14:10:07;;;;;;;7.38;4.63;;;;;;;21.08;38.26;102582.25;10413619;28;20037;-76
2022/04/15 14:15:08;;;;;;;6.15;4.07;;;;;;;21.46;38.42;102584.31;10413283;28;20072;-76
2022/04/15 14:20:09;;;;;;;5.78;4.03;;;;;;;20.77;38.57;102577.69;10411148;28;20034;-76
2022/04/15 14:25:10;;;;;;;5.20;3.90;;;;;;;20.51;39.35;102578.63;10402001;28;20073;-76
2022/04/15 14:30:10;;;;;;;6.68;5.05;;;;;;;19.32;43.04;102575.22;10420233;28;20532;-77
2022/04/15 14:35:16;;;;;;;7.30;4.25;;;;;;;18.72;44.59;102581.66;10441280;28;20486;-76
2022/04/15 14:40:17;;;;;;;7.03;4.97;;;;;;;19.05;42.05;102583.91;10436487;28;20115;-75
2022/04/15 14:45:20;;;;;;;6.90;4.90;;;;;;;18.41;43.61;102585.69;10391182;28;20129;-76
2022/04/15 14:50:20;;;;;;;6.32;4.72;;;;;;;18.31;44.59;102586.13;10439180;28;20045;-76
2022/04/15 14:55:21;;;;;;;10.35;6.07;;;;;;;17.58;46.50;102589.09;10403840;28;20175;-76
2022/04/15 15:00:24;;;;;;;8.40;6.18;;;;;;;17.61;45.78;102589.22;10452674;28;20496;-76
2022/04/15 15:05:27;;;;;;;7.20;4.20;;;;;;;17.52;45.26;102594.09;10424117;28;20450;-76
2022/04/15 15:10:28;;;;;;;7.18;5.47;;;;;;;17.28;46.50;102594.75;10393191;28;20451;-76
2022/04/15 15:15:31;;;;;;;7.80;5.05;;;;;;;17.41;45.68;102596.25;10383136;28;20048;-76
2022/04/15 15:20:32;;;;;;;8.23;6.03;;;;;;;17.07;48.18;102592.00;10380403;28;20030;-77
2022/04/15 15:30:52;;;;;;;8.50;5.38;;;;;;;16.24;49.93;102596.63;10387346;28;20479;-76
2022/04/15 15:35:53;;;;;;;7.68;5.28;;;;;;;15.65;50.01;102604.97;10407396;28;20033;-76
2022/04/15 15:40:55;;;;;;;10.82;6.47;;;;;;;15.19;49.92;102619.16;10391268;28;20026;-79
2022/04/15 15:45:57;;;;;;;;;;;;;;;14.48;52.17;102623.84;10384001;28;20112;-78
2022/04/15 15:50:58;;;;;;;9.20;6.28;;;;;;;13.69;54.25;102623.41;10394038;28;19917;-78
2022/04/15 15:55:59;;;;;;;9.20;5.60;;;;;;;12.96;55.59;102629.22;10394754;28;20036;-78
2022/04/15 16:00:59;;;;;;;13.65;5.97;;;;;;;12.24;58.74;102632.34;10376185;28;20042;-77
2022/04/15 16:06:00;;;;;;;7.80;5.60;;;;;;;12.07;59.04;102633.81;10396660;28;20588;-78
2022/04/15 16:11:00;;;;;;;11.55;5.90;;;;;;;11.75;59.91;102628.06;10395623;28;20069;-78
2022/04/15 16:16:01;;;;;;;10.95;5.32;;;;;;;11.52;60.89;102638.63;10407775;28;20546;-78
2022/04/15 16:21:02;;;;;;;9.07;5.72;;;;;;;11.46;61.77;102640.00;10390887;28;20030;-77
2022/04/15 16:26:03;;;;;;;9.73;6.47;;;;;;;11.68;60.63;102645.91;10366531;28;20030;-77
2022/04/15 16:31:03;;;;;;;8.85;5.63;;;;;;;11.62;62.79;102650.69;10364510;28;20035;-77
2022/04/15 16:36:04;;;;;;;8.90;5.60;;;;;;;11.58;62.52;102641.69;10375455;28;20080;-77
2022/04/15 16:41:07;;;;;;;7.75;5.70;;;;;;;11.71;60.21;102644.38;10412925;28;20087;-77
2022/04/15 16:46:08;;;;;;;8.73;6.40;;;;;;;11.49;61.17;102649.81;10407216;28;20405;-78
2022/04/15 16:51:08;;;;;;;12.70;6.32;;;;;;;11.12;61.81;102650.63;10424958;28;20033;-78
2022/04/15 17:01:28;;;;;;;11.20;6.25;;;;;;;10.91;62.91;102649.03;10402823;28;20029;-77
2022/04/15 17:06:30;;;;;;;10.73;6.40;;;;;;;10.95;63.35;102645.84;10389609;28;20037;-78
2022/04/15 17:11:31;;;;;;;9.18;6.88;;;;;;;10.82;63.41;102650.16;10376108;28;20370;-77
2022/04/15 17:16:35;;;;;;;10.85;7.13;;;;;;;10.85;64.68;102647.78;10398985;28;20029;-78
2022/04/15 17:21:36;;;;;;;10.80;7.82;;;;;;;10.78;63.28;102650.75;10349995;28;20022;-78
2022/04/15 17:26:37;;;;;;;11.38;7.82;;;;;;;10.54;64.69;102653.31;10376682;28;20119;-78
2022/04/15 17:31:37;;;;;;;16.20;8.32;;;;;;;10.40;66.33;102646.13;10387894;28;20168;-77
2022/04/15 17:36:40;;;;;;;10.10;7.00;;;;;;;10.33;65.64;102646.41;10395943;28;20446;-78
2022/04/15 17:41:42;;;;;;;10.18;7.55;;;;;;;10.01;66.52;102648.34;10386108;28;20029;-78
2022/04/15 17:46:43;;;;;;;12.82;9.68;;;;;;;9.79;67.14;102648.34;10382978;28;20555;-78
2022/04/15 17:51:43;;;;;;;9.70;7.40;;;;;;;9.54;67.83;102655.16;10396714;28;20080;-78
2022/04/15 17:56:44;;;;;;;17.20;11.02;;;;;;;9.41;69.12;102665.41;10391635;28;20066;-77
2022/04/15 18:01:44;;;;;;;21.85;15.07;;;;;;;9.32;68.65;102669.88;10354015;28;20080;-78
2022/04/15 18:06:45;;;;;;;19.13;15.68;;;;;;;9.27;68.92;102663.38;10393806;28;20060;-78
2022/04/15 18:11:47;;;;;;;15.23;10.07;;;;;;;9.20;69.66;102667.16;10378707;28;20392;-78
2022/04/15 18:16:47;;;;;;;14.13;10.47;;;;;;;9.09;70.09;102672.41;10369427;28;20068;-77
2022/04/15 18:21:48;;;;;;;17.00;11.93;;;;;;;9.05;70.66;102675.56;10409594;28;20511;-77
2022/04/15 18:26:48;;;;;;;15.98;10.40;;;;;;;8.75;71.24;102676.53;10408223;28;20034;-77
2022/04/15 18:31:49;;;;;;;17.95;12.40;;;;;;;8.52;72.49;102675.50;10394978;28;20077;-77
2022/04/15 18:36:50;;;;;;;14.40;9.27;;;;;;;8.31;73.60;102693.72;10393490;28;20080;-77
2022/04/15 18:41:51;;;;;;;13.93;10.67;;;;;;;7.82;74.81;102689.47;10403220;28;20049;-77
2022/04/15 18:46:52;;;;;;;13.10;9.77;;;;;;;7.63;76.83;102695.66;10388317;28;20045;-77
2022/04/15 18:57:11;;;;;;;15.13;9.82;;;;;;;7.32;78.87;102721.56;10448444;28;20084;-77
2022/04/15 19:02:12;;;;;;;15.65;10.98;;;;;;;7.31;79.30;102720.63;10395969;28;20057;-76
2022/04/15 19:07:12;;;;;;;14.98;11.73;;;;;;;7.32;79.00;102718.94;10465385;28;20128;-77
2022/04/15 19:12:13;;;;;;;15.38;11.25;;;;;;;7.24;79.48;102714.72;10410838;28;20075;-77
2022/04/15 19:17:13;;;;;;;21.73;13.77;;;;;;;7.16;79.29;102716.63;10426286;28;20129;-77
2022/04/15 19:22:15;;;;;;;18.77;13.73;;;;;;;7.08;79.38;102720.22;10417776;28;20028;-77
2022/04/15 19:27:15;;;;;;;16.90;11.75;;;;;;;6.98;79.99;102724.56;10414952;28;20065;-77
2022/04/15 19:32:16;;;;;;;16.90;12.95;;;;;;;6.80;81.43;102728.09;10430722;28;20127;-77
2022/04/15 19:37:16;;;;;;;18.45;11.75;;;;;;;6.56;81.65;102733.75;10449122;28;20457;-77
2022/04/15 19:42:17;;;;;;;20.85;13.25;;;;;;;6.47;82.31;102735.50;10411999;28;20060;-77
2022/04/15 19:47:17;;;;;;;16.83;12.05;;;;;;;6.20;82.67;102744.19;10460696;28;20071;-77
2022/04/15 19:52:18;;;;;;;18.42;11.88;;;;;;;5.95;83.81;102758.31;10413686;28;20080;-77
2022/04/15 20:02:38;;;;;;;19.38;13.85;;;;;;;5.84;84.91;102770.25;10450726;28;20108;-77
2022/04/15 20:07:39;;;;;;;17.35;12.90;;;;;;;6.07;85.56;102762.91;10424347;28;20543;-76
2022/04/15 20:12:40;;;;;;;21.60;15.70;;;;;;;6.07;85.00;102762.91;10477219;28;20048;-76
2022/04/15 20:17:41;;;;;;;24.30;15.93;;;;;;;6.20;85.12;102763.31;10461365;28;20435;-77
2022/04/15 20:22:41;;;;;;;19.52;13.18;;;;;;;6.20;85.05;102764.97;10458102;28;20186;-77
2022/04/15 20:27:42;;;;;;;21.25;15.43;;;;;;;6.26;84.85;102774.28;10458444;28;20056;-76
2022/04/15 20:32:43;;;;;;;22.83;15.70;;;;;;;6.12;84.93;102785.97;10440245;28;20079;-77
2022/04/15 20:37:50;;;;;;;23.15;14.32;;;;;;;6.01;85.46;102779.75;10482207;28;20076;-77
2022/04/15 20:42:52;;;;;;;21.73;15.77;;;;;;;5.93;85.33;102784.91;10434829;28;20085;-76
2022/04/15 20:47:53;;;;;;;21.75;15.32;;;;;;;5.67;85.90;102781.59;10398892;28;20057;-76
2022/04/15 20:52:53;;;;;;;25.52;17.27;;;;;;;5.39;86.43;102780.53;10391560;28;20565;-77
2022/04/15 20:57:54;;;;;;;24.73;17.95;;;;;;;5.33;87.93;102788.66;10414731;28;20134;-76
2022/04/15 21:02:55;;;;;;;23.77;18.13;;;;;;;5.22;88.50;102786.66;10438142;28;20075;-76
2022/04/15 21:07:55;;;;;;;24.23;17.42;;;;;;;5.10;88.64;102795.06;10427669;28;20088;-76
2022/04/15 21:12:56;;;;;;;24.48;16.27;;;;;;;5.02;89.08;102789.84;10431376;28;20075;-76
2022/04/15 21:17:56;;;;;;;25.38;19.02;;;;;;;4.96;89.16;102792.75;10432176;28;20026;-77
2022/04/15 21:22:57;;;;;;;27.67;16.15;;;;;;;4.95;89.43;102790.91;10432229;28;20069;-77
2022/04/15 21:27:57;;;;;;;30.65;17.10;;;;;;;4.91;89.76;102787.06;10440551;28;20048;-76
2022/04/15 21:32:58;;;;;;;26.70;19.17;;;;;;;4.78;89.97;102784.00;10438559;28;20599;-76
2022/04/15 21:37:58;;;;;;;25.63;18.35;;;;;;;4.81;90.46;102785.25;10438320;28;20029;-76
2022/04/15 21:42:59;;;;;;;24.40;16.38;;;;;;;4.71;90.31;102787.66;10435412;28;20124;-77
2022/04/15 21:47:59;;;;;;;28.98;18.92;;;;;;;4.53;90.58;102792.78;10396295;28;20107;-77
2022/04/15 21:53:00;;;;;;;30.10;21.77;;;;;;;4.37;90.67;102787.69;10443747;28;20078;-75
2022/04/15 21:58:01;;;;;;;26.65;18.08;;;;;;;4.30;90.97;102786.91;10452353;28;20064;-75
2022/04/15 22:03:02;;;;;;;30.85;18.95;;;;;;;4.21;91.04;102792.03;10454584;28;20072;-76
2022/04/15 22:08:02;;;;;;;29.75;21.33;;;;;;;4.11;91.38;102791.06;10433151;28;20090;-76
2022/04/15 22:13:03;;;;;;;27.65;18.10;;;;;;;4.00;91.17;102793.31;10424607;28;20052;-76
2022/04/15 22:18:03;;;;;;;34.05;23.20;;;;;;;3.90;91.63;102792.34;10420775;28;20039;-76
2022/04/15 22:23:04;;;;;;;28.70;17.95;;;;;;;3.90;92.19;102786.22;10453669;28;20075;-76
2022/04/15 22:28:05;;;;;;;32.25;20.10;;;;;;;3.85;92.25;102795.19;10435592;28;20472;-76
2022/04/15 22:33:07;;;;;;;32.60;20.83;;;;;;;3.77;92.39;102797.88;10384077;28;20086;-76
2022/04/15 22:38:08;;;;;;;33.85;22.00;;;;;;;3.73;92.51;102807.75;10406259;28;20033;-80
2022/04/15 22:43:10;;;;;;;28.08;21.20;;;;;;;3.81;93.18;102805.22;10402625;28;20033;-77
2022/04/15 22:48:20;;;;;;;30.35;21.13;;;;;;;3.84;93.32;102807.22;10406335;28;20495;-77
2022/04/15 22:53:28;;;;;;;37.78;26.23;;;;;;;3.94;93.84;102807.44;10333091;28;20045;-77
2022/04/15 22:58:29;;;;;;;30.15;20.10;;;;;;;4.10;93.77;102809.06;10434504;28;20040;-77
2022/04/15 23:03:36;;;;;;;32.85;20.85;;;;;;;4.04;93.86;102808.41;10415842;28;20041;-76
2022/04/15 23:08:44;;;;;;;34.70;22.48;;;;;;;3.99;93.59;102804.41;10371242;28;20049;-77
2022/04/15 23:13:45;;;;;;;34.80;22.75;;;;;;;3.98;94.11;102813.84;10356590;28;20041;-77
2022/04/15 23:18:45;;;;;;;31.50;22.17;;;;;;;4.02;93.71;102815.13;10395535;28;20513;-78
2022/04/15 23:23:46;;;;;;;37.42;23.80;;;;;;;4.05;93.95;102818.94;10402328;28;20072;-77
2022/04/15 23:28:47;;;;;;;39.95;23.83;;;;;;;4.05;94.04;102816.34;10421098;28;20548;-77